Time;durP1;ratioP1;P1;durP2;ratioP2;P2;SDS_P1;SDS_P2;PMS_P1;PMS_P2;Temp;Humidity;BMP_temperature;BMP_pressure;BME280_temperature;BME280_humidity;BME280_pressure;Samples;Min_cycle;Max_cycle;Signal;HPM_P1;HPM_P2
2023/05/14 17:28:36;;;;;;;;;13.50;13.50;;;;;25.76;33.24;101251.28;5091205;27;45571;-60
2023/05/14 17:31:02;;;;;;;;;17.25;16.00;;;;;25.89;33.38;101267.38;5075786;27;45390;-60
2023/05/14 17:33:27;;;;;;;;;15.50;14.25;;;;;25.88;32.50;101263.75;5075323;28;45353;-61
2023/05/14 17:35:53;;;;;;;;;15.75;15.00;;;;;25.88;32.42;101271.13;5075691;27;45343;-60
2023/05/14 17:38:18;;;;;;;;;13.50;13.50;;;;;25.80;33.02;101263.66;5075546;27;45433;-61
2023/05/14 17:40:44;;;;;;;;;14.25;14.25;;;;;25.66;33.20;101261.47;5074527;27;45266;-60
2023/05/14 17:43:09;;;;;;;;;14.50;14.00;;;;;25.57;33.00;101268.72;5076042;27;45318;-59
2023/05/14 17:45:34;;;;;;;;;14.50;14.50;;;;;25.43;33.10;101272.00;5075592;27;45217;-60
2023/05/14 17:48:00;;;;;;;;;17.25;15.75;;;;;25.27;34.20;101272.63;5075525;27;51565;-60
2023/05/14 17:50:25;;;;;;;;;15.00;14.25;;;;;25.14;33.93;101274.03;5075239;27;45271;-60
2023/05/14 17:52:50;;;;;;;;;8.25;8.25;;;;;25.07;34.11;101275.66;5075872;27;45220;-60
2023/05/14 17:55:17;;;;;;;;;14.25;14.25;;;;;24.89;34.27;101264.56;5074917;27;45552;-61
2023/05/14 17:57:43;;;;;;;;;14.25;14.25;;;;;24.74;34.14;101272.41;5075375;27;46933;-61
2023/05/14 18:00:09;;;;;;;;;18.50;15.00;;;;;24.58;34.85;101269.44;5066656;27;45545;-60
2023/05/14 18:02:34;;;;;;;;;15.75;14.50;;;;;24.50;34.65;101277.50;5074947;27;45465;-61
2023/05/14 18:05:01;;;;;;;;;15.25;15.25;;;;;24.35;34.62;101273.50;5078207;27;45448;-59
2023/05/14 18:07:27;;;;;;;;;14.00;14.00;;;;;24.24;34.85;101288.25;5074784;27;46160;-62
2023/05/14 18:09:52;;;;;;;;;15.50;14.25;;;;;24.12;35.32;101283.88;5073255;27;45480;-59
2023/05/14 18:12:17;;;;;;;;;17.50;16.50;;;;;24.04;35.96;101283.72;5074596;28;54070;-61
2023/05/14 18:14:42;;;;;;;;;15.00;15.00;;;;;23.96;36.39;101278.09;5074405;27;45453;-62
2023/05/14 18:17:08;;;;;;;;;14.50;14.50;;;;;24.00;36.18;101293.22;5073066;28;45711;-60
2023/05/14 18:19:33;;;;;;;;;15.00;15.00;;;;;23.93;35.87;101294.81;5074651;27;45169;-62
2023/05/14 18:21:58;;;;;;;;;15.00;15.00;;;;;23.81;36.62;101288.63;5074353;27;45520;-62
2023/05/14 18:24:24;;;;;;;;;17.25;15.75;;;;;23.81;36.61;101302.31;5074590;27;45285;-61
2023/05/14 18:26:50;;;;;;;;;16.00;14.00;;;;;23.75;36.67;101306.47;5074344;27;45248;-61
2023/05/14 18:29:15;;;;;;;;;18.00;15.00;;;;;23.71;37.03;101301.44;5062138;27;45460;-61
2023/05/14 18:31:41;;;;;;;;;14.75;14.75;;;;;23.61;37.11;101303.28;5061111;28;45236;-60
2023/05/14 18:34:06;;;;;;;;;15.25;15.25;;;;;23.53;37.05;101309.47;5059842;28;45421;-61
2023/05/14 18:36:31;;;;;;;;;14.50;14.50;;;;;23.46;37.20;101296.44;5060375;28;54556;-61
2023/05/14 18:38:57;;;;;;;;;15.25;14.75;;;;;23.42;37.44;101314.13;5061557;28;45298;-61
2023/05/14 18:41:22;;;;;;;;;16.50;16.50;;;;;23.37;37.68;101309.09;5060998;28;45227;-61
2023/05/14 18:43:48;;;;;;;;;18.00;16.50;;;;;23.32;37.83;101304.03;5060876;28;45539;-60
2023/05/14 18:46:14;;;;;;;;;18.25;17.00;;;;;23.25;38.17;101308.31;5060743;28;45445;-61
2023/05/14 18:48:40;;;;;;;;;14.50;14.50;;;;;23.24;38.66;101319.41;5061212;28;45342;-61
2023/05/14 18:51:05;;;;;;;;;18.25;16.75;;;;;23.18;38.50;101314.47;5060551;28;45405;-62
2023/05/14 18:53:30;;;;;;;;;19.50;17.50;;;;;23.14;39.00;101311.16;5060960;28;45296;-62
2023/05/14 18:55:56;;;;;;;;;18.75;17.50;;;;;22.95;38.90;101295.53;5060186;28;60684;-61
2023/05/14 18:58:22;;;;;;;;;22.50;19.50;;;;;22.93;39.51;101304.88;5060033;28;45898;-61
2023/05/14 19:00:47;;;;;;;;;15.50;15.50;;;;;22.88;39.82;101310.72;5060727;28;45415;-62
2023/05/14 19:03:13;;;;;;;;;17.75;17.75;;;;;22.81;40.19;101315.00;5060450;28;45347;-60
2023/05/14 19:05:38;;;;;;;;;20.00;18.75;;;;;22.73;40.36;101320.25;5059833;28;45654;-61
2023/05/14 19:08:03;;;;;;;;;18.50;16.00;;;;;22.67;40.53;101314.47;5059970;28;45631;-60
2023/05/14 19:10:29;;;;;;;;;19.00;17.75;;;;;22.59;40.76;101312.41;5060799;28;45293;-62
2023/05/14 19:12:54;;;;;;;;;17.25;17.25;;;;;22.54;41.09;101318.25;5059209;28;61503;-68
2023/05/14 19:15:19;;;;;;;;;19.00;16.00;;;;;22.50;41.56;101313.22;5059259;28;46185;-74
2023/05/14 19:17:45;;;;;;;;;17.25;15.75;;;;;22.42;41.53;101304.81;5053584;28;45351;-72
2023/05/14 19:20:11;;;;;;;;;16.75;16.75;;;;;22.30;41.98;101312.19;5057596;28;45499;-72
2023/05/14 19:22:36;;;;;;;;;19.75;18.50;;;;;22.26;41.88;101319.81;5059551;28;45518;-71
2023/05/14 19:25:01;;;;;;;;;17.75;16.00;;;;;22.18;42.57;101324.19;5059479;28;45299;-70
2023/05/14 19:27:27;;;;;;;;;18.75;17.75;;;;;22.12;42.26;101322.81;5059041;28;45320;-70
2023/05/14 19:29:52;;;;;;;;;18.50;18.50;;;;;22.06;41.89;101328.81;5057608;28;45339;-72
2023/05/14 19:32:18;;;;;;;;;13.25;12.00;;;;;21.95;41.97;101317.06;5059753;28;58015;-70
2023/05/14 19:34:43;;;;;;;;;17.25;15.50;;;;;21.96;41.33;101327.81;5056014;28;56694;-65
2023/05/14 19:37:08;;;;;;;;;21.00;19.50;;;;;21.84;42.14;101328.88;5059879;28;45414;-70
2023/05/14 19:39:33;;;;;;;;;22.00;22.00;;;;;21.80;41.67;101338.28;5059070;28;45275;-69
2023/05/14 19:41:59;;;;;;;;;17.75;16.00;;;;;21.63;41.41;101319.72;5059468;28;45476;-67
2023/05/14 19:44:24;;;;;;;;;18.50;18.50;;;;;21.62;41.23;101334.34;5059634;28;45533;-69
2023/05/14 19:46:50;;;;;;;;;20.25;19.00;;;;;21.57;41.20;101342.06;5059821;28;45315;-69
2023/05/14 19:49:15;;;;;;;;;17.00;17.00;;;;;21.44;42.19;101344.94;5059624;28;45366;-69
2023/05/14 19:51:40;;;;;;;;;16.50;16.50;;;;;21.37;42.50;101352.75;5059383;28;45332;-69
2023/05/14 19:54:06;;;;;;;;;21.00;19.75;;;;;21.28;42.26;101355.34;5059181;28;52374;-67
2023/05/14 19:56:31;;;;;;;;;20.00;20.00;;;;;21.19;43.19;101347.91;5059403;28;45343;-70
2023/05/14 19:58:57;;;;;;;;;16.00;14.00;;;;;21.15;43.21;101353.59;5059455;28;45496;-71
2023/05/14 20:01:22;;;;;;;;;19.25;17.75;;;;;21.11;43.20;101351.22;5059332;28;45536;-73
2023/05/14 20:03:48;;;;;;;;;15.00;15.00;;;;;20.93;43.40;101339.06;5059373;28;45353;-70
2023/05/14 20:06:13;;;;;;;;;18.50;18.50;;;;;20.94;44.37;101354.44;5059562;28;45483;-68
2023/05/14 20:08:39;;;;;;;;;19.00;19.00;;;;;20.92;44.22;101357.31;5058855;28;45346;-70
2023/05/14 20:11:04;;;;;;;;;17.75;17.25;;;;;20.88;44.55;101363.09;5058429;28;45276;-68
2023/05/14 20:13:30;;;;;;;;;21.25;21.25;;;;;20.83;44.58;101357.16;5058778;28;46190;-71
2023/05/14 20:15:57;;;;;;;;;23.25;21.75;;;;;20.79;45.20;101367.44;5058683;28;45350;-69
2023/05/14 20:18:22;;;;;;;;;18.75;18.75;;;;;20.71;45.16;101372.59;5059072;28;45336;-68
2023/05/14 20:20:48;;;;;;;;;19.75;17.50;;;;;20.64;45.06;101372.22;5058692;28;45681;-68
2023/05/14 20:23:13;;;;;;;;;19.25;19.25;;;;;20.48;44.91;101365.38;5058960;28;46022;-72
2023/05/14 20:25:38;;;;;;;;;19.00;17.50;;;;;20.27;45.31;101368.72;5058521;28;52783;-70
2023/05/14 20:28:04;;;;;;;;;21.75;19.75;;;;;20.13;45.73;101366.19;5058778;28;45331;-70
2023/05/14 20:30:29;;;;;;;;;19.00;19.00;;;;;20.03;45.88;101362.41;5058371;28;45487;-71
2023/05/14 20:32:55;;;;;;;;;22.00;20.25;;;;;19.99;46.18;101369.94;5058505;28;46073;-72
2023/05/14 20:35:20;;;;;;;;;18.00;17.50;;;;;19.87;46.44;101368.16;5058508;28;45291;-68
2023/05/14 20:37:46;;;;;;;;;21.00;18.75;;;;;19.80;46.68;101369.59;5059265;28;45481;-70
2023/05/14 20:40:11;;;;;;;;;22.75;19.75;;;;;19.78;46.92;101366.09;5058727;28;45473;-69
2023/05/14 20:42:37;;;;;;;;;21.00;20.25;;;;;19.75;47.06;101362.72;5058688;28;46278;-72
2023/05/14 20:45:03;;;;;;;;;21.25;21.25;;;;;19.73;47.26;101365.59;5049844;28;45573;-70
2023/05/14 20:47:30;;;;;;;;;20.50;19.50;;;;;19.68;47.31;101364.19;5058952;28;45300;-71
2023/05/14 20:49:55;;;;;;;;;23.25;21.50;;;;;19.63;47.27;101362.69;5058514;28;46226;-71
2023/05/14 20:52:21;;;;;;;;;24.00;22.75;;;;;19.58;47.50;101369.41;5058724;28;45344;-71
2023/05/14 20:54:46;;;;;;;;;16.75;16.00;;;;;19.57;47.50;101374.00;5058984;28;45355;-71
2023/05/14 20:57:15;;;;;;;;;26.75;25.25;;;;;19.51;48.12;101371.72;5059098;28;45323;-70
2023/05/14 20:59:41;;;;;;;;;22.00;20.00;;;;;19.46;47.65;101381.19;5059005;28;45397;-70
2023/05/14 21:02:07;;;;;;;;;22.25;22.25;;;;;19.44;47.97;101385.84;5058679;28;46584;-71
2023/05/14 21:04:32;;;;;;;;;26.75;24.75;;;;;19.39;48.31;101386.22;5057445;28;45475;-71
2023/05/14 21:06:58;;;;;;;;;24.50;22.00;;;;;19.25;48.47;101381.75;5058073;28;45496;-71
2023/05/14 21:09:23;;;;;;;;;21.50;21.00;;;;;19.18;48.85;101385.88;5051246;28;45600;-71
2023/05/14 21:11:49;;;;;;;;;26.25;22.25;;;;;19.04;48.85;101372.44;5058528;28;45318;-70
2023/05/14 21:14:15;;;;;;;;;19.00;16.50;;;;;18.93;49.49;101372.31;5058519;28;45339;-70
2023/05/14 21:16:40;;;;;;;;;28.00;25.00;;;;;18.93;49.98;101374.16;5058377;28;45331;-70
2023/05/14 21:19:06;;;;;;;;;22.00;22.00;;;;;18.90;50.13;101378.81;5058485;28;45316;-71
2023/05/14 21:21:31;;;;;;;;;23.50;23.00;;;;;18.90;50.13;101381.53;5058242;28;45978;-70
2023/05/14 21:23:56;;;;;;;;;24.00;23.25;;;;;18.83;49.97;101374.81;5057893;28;55525;-70
2023/05/14 21:26:22;;;;;;;;;12.50;9.75;;;;;18.83;50.56;101377.50;5058510;28;45456;-70
2023/05/14 21:28:47;;;;;;;;;21.00;20.25;;;;;18.79;50.40;101370.56;5058311;28;45177;-70
2023/05/14 21:31:14;;;;;;;;;26.25;25.00;;;;;18.85;50.21;101374.69;5058350;28;46134;-71
2023/05/14 21:33:39;;;;;;;;;27.25;25.75;;;;;18.84;50.04;101375.66;5057630;28;63026;-70
2023/05/14 21:36:06;;;;;;;;;30.75;30.00;;;;;18.83;50.70;101377.50;5058332;28;45342;-71
2023/05/14 21:38:32;;;;;;;;;26.50;26.50;;;;;18.81;50.34;101374.03;5057065;28;45343;-71
2023/05/14 21:40:58;;;;;;;;;25.50;25.50;;;;;18.80;50.44;101376.84;5058231;28;46699;-71
2023/05/14 21:43:23;;;;;;;;;32.50;27.00;;;;;18.78;50.81;101376.09;5058566;28;45370;-72
2023/05/14 21:45:49;;;;;;;;;33.25;31.00;;;;;18.79;50.87;101372.41;5058353;28;45412;-72
2023/05/14 21:48:14;;;;;;;;;20.00;19.25;;;;;18.76;51.31;101375.34;5057282;28;45299;-71
2023/05/14 21:50:39;;;;;;;;;25.00;21.50;;;;;18.71;51.50;101366.66;5057610;28;45324;-71
2023/05/14 21:53:05;;;;;;;;;35.00;31.25;;;;;18.70;51.55;101365.78;5058141;28;45327;-69
2023/05/14 21:55:30;;;;;;;;;22.50;22.50;;;;;18.72;51.34;101373.81;5058434;28;45250;-70
2023/05/14 21:57:56;;;;;;;;;22.25;22.25;;;;;18.73;51.42;101370.97;5058166;28;45332;-71
2023/05/14 22:00:24;;;;;;;;;27.25;25.75;;;;;18.62;51.37;101351.00;5056449;28;45451;-71
2023/05/14 22:02:51;;;;;;;;;24.00;23.25;;;;;18.67;51.40;101375.97;5057985;28;45398;-70
2023/05/14 22:05:16;;;;;;;;;21.50;21.50;;;;;18.54;51.70;101371.34;5061307;28;45347;-70
2023/05/14 22:07:41;;;;;;;;;20.00;20.00;;;;;18.42;51.74;101368.63;5061605;28;45490;-70
2023/05/14 22:10:07;;;;;;;;;23.25;22.50;;;;;18.31;51.89;101368.47;5061235;28;54383;-71
2023/05/14 22:12:32;;;;;;;;;24.25;23.50;;;;;18.20;52.54;101371.94;5060321;28;45370;-70
2023/05/14 22:14:58;;;;;;;;;25.75;22.50;;;;;17.99;52.96;101359.81;5061593;28;45295;-71
2023/05/14 22:17:23;;;;;;;;;25.50;24.00;;;;;17.87;53.55;101375.06;5061223;28;45551;-71
2023/05/14 22:19:48;;;;;;;;;26.25;26.25;;;;;17.79;53.94;101374.69;5060992;28;47187;-70
2023/05/14 22:22:14;;;;;;;;;27.25;25.50;;;;;17.68;54.06;101374.53;5061518;28;45403;-71
2023/05/14 22:24:39;;;;;;;;;26.25;25.25;;;;;17.60;54.39;101368.72;5061452;28;45224;-70
2023/05/14 22:27:05;;;;;;;;;28.00;25.75;;;;;17.58;54.50;101376.94;5060975;28;49639;-71
2023/05/14 22:29:30;;;;;;;;;25.25;25.25;;;;;17.49;54.84;101377.53;5061125;28;46286;-70
2023/05/14 22:31:55;;;;;;;;;24.50;23.00;;;;;17.43;54.68;101366.22;5061510;28;45388;-71
2023/05/14 22:34:21;;;;;;;;;28.25;26.00;;;;;17.45;55.29;101375.09;5060921;28;51492;-71
2023/05/14 22:36:46;;;;;;;;;27.00;26.00;;;;;17.44;55.15;101370.69;5061006;28;45393;-71
2023/05/14 22:39:12;;;;;;;;;28.50;27.50;;;;;17.33;55.55;101361.41;5060498;28;57656;-71
2023/05/14 22:41:38;;;;;;;;;29.00;24.25;;;;;17.34;55.74;101368.56;5061103;28;45460;-71
2023/05/14 22:44:03;;;;;;;;;24.50;23.50;;;;;17.35;55.85;101367.56;5061082;28;45502;-70
2023/05/14 22:46:28;;;;;;;;;24.75;23.00;;;;;17.28;55.98;101355.38;5060649;28;56285;-70
2023/05/14 22:48:54;;;;;;;;;24.75;23.75;;;;;17.34;55.53;101367.69;5060965;28;45371;-71
2023/05/14 22:51:19;;;;;;;;;25.00;22.50;;;;;17.27;55.78;101347.34;5060549;28;45313;-71
2023/05/14 22:53:45;;;;;;;;;21.25;20.00;;;;;17.27;55.92;101356.34;5061058;28;45455;-71
2023/05/14 22:56:11;;;;;;;;;30.25;26.00;;;;;17.30;56.14;101349.88;5060715;28;45283;-71
2023/05/14 22:58:36;;;;;;;;;27.50;27.00;;;;;17.31;56.19;101349.78;5060933;28;46321;-71
